sensor_id;sensor_type;location;lat;lon;timestamp;P1;durP1;ratioP1;P2;durP2;ratioP2
6735;SDS011;3405;50.576;12.364;2023-05-16T19:21:01;19.75;;;7.03;;
6735;SDS011;3405;50.576;12.364;2023-05-16T19:23:27;19.15;;;7.97;;
6735;SDS011;3405;50.576;12.364;2023-05-16T19:25:54;15.60;;;6.68;;
6735;SDS011;3405;50.576;12.364;2023-05-16T19:28:20;19.30;;;6.47;;
6735;SDS011;3405;50.576;12.364;2023-05-16T19:30:48;15.95;;;6.97;;
6735;SDS011;3405;50.576;12.364;2023-05-16T19:33:14;13.60;;;6.85;;
6735;SDS011;3405;50.576;12.364;2023-05-16T19:35:40;11.85;;;6.05;;
6735;SDS011;3405;50.576;12.364;2023-05-16T19:38:06;17.80;;;6.20;;
6735;SDS011;3405;50.576;12.364;2023-05-16T19:40:32;14.15;;;5.82;;
6735;SDS011;3405;50.576;12.364;2023-05-16T19:42:58;14.27;;;6.22;;
6735;SDS011;3405;50.576;12.364;2023-05-16T19:45:24;13.40;;;5.50;;
6735;SDS011;3405;50.576;12.364;2023-05-16T19:47:50;11.93;;;5.50;;
6735;SDS011;3405;50.576;12.364;2023-05-16T19:50:16;13.50;;;5.43;;
6735;SDS011;3405;50.576;12.364;2023-05-16T19:52:43;11.40;;;5.40;;
6735;SDS011;3405;50.576;12.364;2023-05-16T19:55:09;8.85;;;4.85;;
6735;SDS011;3405;50.576;12.364;2023-05-16T19:57:35;14.25;;;5.10;;
6735;SDS011;3405;50.576;12.364;2023-05-16T20:00:02;8.48;;;4.18;;
6735;SDS011;3405;50.576;12.364;2023-05-16T20:02:29;10.32;;;4.32;;
6735;SDS011;3405;50.576;12.364;2023-05-16T20:04:55;9.63;;;4.32;;
6735;SDS011;3405;50.576;12.364;2023-05-16T20:07:21;14.05;;;5.25;;
6735;SDS011;3405;50.576;12.364;2023-05-16T20:09:48;9.32;;;4.05;;
6735;SDS011;3405;50.576;12.364;2023-05-16T20:12:15;8.32;;;4.00;;
6735;SDS011;3405;50.576;12.364;2023-05-16T20:14:41;11.02;;;4.65;;
6735;SDS011;3405;50.576;12.364;2023-05-16T20:17:07;10.82;;;4.32;;
6735;SDS011;3405;50.576;12.364;2023-05-16T20:19:33;12.35;;;3.72;;
6735;SDS011;3405;50.576;12.364;2023-05-16T20:22:01;8.43;;;3.63;;
6735;SDS011;3405;50.576;12.364;2023-05-16T20:24:27;9.55;;;4.38;;
6735;SDS011;3405;50.576;12.364;2023-05-16T20:26:53;10.70;;;4.38;;
6735;SDS011;3405;50.576;12.364;2023-05-16T20:29:19;9.10;;;3.67;;
6735;SDS011;3405;50.576;12.364;2023-05-16T20:31:44;10.80;;;3.83;;
6735;SDS011;3405;50.576;12.364;2023-05-16T20:34:10;6.30;;;3.40;;
6735;SDS011;3405;50.576;12.364;2023-05-16T20:36:36;5.60;;;3.22;;
6735;SDS011;3405;50.576;12.364;2023-05-16T20:39:02;10.73;;;3.35;;
6735;SDS011;3405;50.576;12.364;2023-05-16T20:41:31;9.45;;;3.33;;
6735;SDS011;3405;50.576;12.364;2023-05-16T20:43:57;6.90;;;3.38;;
6735;SDS011;3405;50.576;12.364;2023-05-16T20:46:23;8.05;;;3.85;;
6735;SDS011;3405;50.576;12.364;2023-05-16T20:48:49;11.02;;;3.72;;
6735;SDS011;3405;50.576;12.364;2023-05-16T20:51:15;8.90;;;3.30;;
6735;SDS011;3405;50.576;12.364;2023-05-16T20:53:41;12.80;;;3.72;;
6735;SDS011;3405;50.576;12.364;2023-05-16T20:56:07;8.45;;;3.25;;
6735;SDS011;3405;50.576;12.364;2023-05-16T20:58:33;9.55;;;3.28;;
6735;SDS011;3405;50.576;12.364;2023-05-16T21:00:59;8.23;;;3.20;;
6735;SDS011;3405;50.576;12.364;2023-05-16T21:03:26;7.35;;;2.60;;
6735;SDS011;3405;50.576;12.364;2023-05-16T21:05:51;8.27;;;2.92;;
6735;SDS011;3405;50.576;12.364;2023-05-16T21:08:17;6.30;;;3.03;;
6735;SDS011;3405;50.576;12.364;2023-05-16T21:10:43;10.13;;;3.05;;
6735;SDS011;3405;50.576;12.364;2023-05-16T21:13:09;6.45;;;3.13;;
6735;SDS011;3405;50.576;12.364;2023-05-16T21:15:35;4.88;;;2.88;;
6735;SDS011;3405;50.576;12.364;2023-05-16T21:18:02;5.90;;;2.72;;
6735;SDS011;3405;50.576;12.364;2023-05-16T21:20:28;5.88;;;2.47;;
6735;SDS011;3405;50.576;12.364;2023-05-16T21:22:54;9.95;;;3.50;;
6735;SDS011;3405;50.576;12.364;2023-05-16T21:25:20;12.45;;;2.90;;
6735;SDS011;3405;50.576;12.364;2023-05-16T21:27:46;5.15;;;2.33;;
6735;SDS011;3405;50.576;12.364;2023-05-16T21:30:12;3.95;;;2.35;;
6735;SDS011;3405;50.576;12.364;2023-05-16T21:32:38;4.82;;;2.70;;
6735;SDS011;3405;50.576;12.364;2023-05-16T21:35:04;5.13;;;2.20;;
6735;SDS011;3405;50.576;12.364;2023-05-16T21:37:31;6.43;;;2.58;;
6735;SDS011;3405;50.576;12.364;2023-05-16T21:39:57;5.55;;;2.92;;
6735;SDS011;3405;50.576;12.364;2023-05-16T21:42:23;5.68;;;2.10;;
6735;SDS011;3405;50.576;12.364;2023-05-16T21:44:48;3.22;;;2.20;;
6735;SDS011;3405;50.576;12.364;2023-05-16T21:47:14;3.25;;;1.98;;
6735;SDS011;3405;50.576;12.364;2023-05-16T21:49:40;5.53;;;2.50;;
6735;SDS011;3405;50.576;12.364;2023-05-16T21:52:06;3.53;;;2.08;;
6735;SDS011;3405;50.576;12.364;2023-05-16T21:54:32;4.00;;;2.10;;
6735;SDS011;3405;50.576;12.364;2023-05-16T21:56:58;5.18;;;2.20;;
6735;SDS011;3405;50.576;12.364;2023-05-16T21:59:24;4.47;;;2.20;;
6735;SDS011;3405;50.576;12.364;2023-05-16T22:01:50;4.82;;;2.20;;
6735;SDS011;3405;50.576;12.364;2023-05-16T22:04:16;4.20;;;2.00;;
6735;SDS011;3405;50.576;12.364;2023-05-16T22:06:42;5.35;;;2.00;;
6735;SDS011;3405;50.576;12.364;2023-05-16T22:09:08;4.90;;;1.90;;
6735;SDS011;3405;50.576;12.364;2023-05-16T22:11:35;3.15;;;1.60;;
6735;SDS011;3405;50.576;12.364;2023-05-16T22:14:01;4.00;;;1.88;;
6735;SDS011;3405;50.576;12.364;2023-05-16T22:16:27;3.60;;;2.05;;
6735;SDS011;3405;50.576;12.364;2023-05-16T22:18:53;3.45;;;1.95;;
6735;SDS011;3405;50.576;12.364;2023-05-16T22:21:19;2.78;;;1.65;;
6735;SDS011;3405;50.576;12.364;2023-05-16T22:23:45;4.05;;;1.83;;
6735;SDS011;3405;50.576;12.364;2023-05-16T22:26:11;4.13;;;2.00;;
6735;SDS011;3405;50.576;12.364;2023-05-16T22:28:37;2.78;;;1.83;;
6735;SDS011;3405;50.576;12.364;2023-05-16T22:31:03;6.93;;;2.17;;
6735;SDS011;3405;50.576;12.364;2023-05-16T22:33:29;2.72;;;1.85;;
6735;SDS011;3405;50.576;12.364;2023-05-16T22:35:55;2.65;;;1.63;;
6735;SDS011;3405;50.576;12.364;2023-05-16T22:38:20;4.15;;;1.85;;
6735;SDS011;3405;50.576;12.364;2023-05-16T22:40:46;2.33;;;1.77;;
6735;SDS011;3405;50.576;12.364;2023-05-16T22:43:13;2.10;;;1.50;;
6735;SDS011;3405;50.576;12.364;2023-05-16T22:45:38;2.70;;;1.50;;
6735;SDS011;3405;50.576;12.364;2023-05-16T22:48:05;2.92;;;1.80;;
6735;SDS011;3405;50.576;12.364;2023-05-16T22:50:31;3.03;;;1.70;;
6735;SDS011;3405;50.576;12.364;2023-05-16T22:52:56;3.00;;;1.52;;
6735;SDS011;3405;50.576;12.364;2023-05-16T22:55:22;2.30;;;1.38;;
6735;SDS011;3405;50.576;12.364;2023-05-16T22:57:48;2.30;;;1.50;;
6735;SDS011;3405;50.576;12.364;2023-05-16T23:00:16;1.58;;;1.48;;
6735;SDS011;3405;50.576;12.364;2023-05-16T23:02:46;3.15;;;1.88;;
6735;SDS011;3405;50.576;12.364;2023-05-16T23:05:12;1.65;;;1.40;;
6735;SDS011;3405;50.576;12.364;2023-05-16T23:07:38;2.20;;;1.52;;
6735;SDS011;3405;50.576;12.364;2023-05-16T23:10:04;2.97;;;1.55;;
6735;SDS011;3405;50.576;12.364;2023-05-16T23:12:30;2.47;;;1.42;;
6735;SDS011;3405;50.576;12.364;2023-05-16T23:14:56;2.45;;;1.20;;
6735;SDS011;3405;50.576;12.364;2023-05-16T23:17:22;2.78;;;1.40;;
6735;SDS011;3405;50.576;12.364;2023-05-16T23:19:48;2.80;;;1.38;;
6735;SDS011;3405;50.576;12.364;2023-05-16T23:22:14;3.03;;;1.42;;
6735;SDS011;3405;50.576;12.364;2023-05-16T23:24:40;2.53;;;1.55;;
6735;SDS011;3405;50.576;12.364;2023-05-16T23:27:05;1.58;;;1.42;;
6735;SDS011;3405;50.576;12.364;2023-05-16T23:29:31;2.08;;;1.40;;
6735;SDS011;3405;50.576;12.364;2023-05-16T23:31:57;1.83;;;1.40;;
6735;SDS011;3405;50.576;12.364;2023-05-16T23:34:23;1.98;;;1.48;;
6735;SDS011;3405;50.576;12.364;2023-05-16T23:36:49;2.10;;;1.30;;
6735;SDS011;3405;50.576;12.364;2023-05-16T23:39:15;2.13;;;1.20;;
6735;SDS011;3405;50.576;12.364;2023-05-16T23:41:41;1.83;;;1.23;;
6735;SDS011;3405;50.576;12.364;2023-05-16T23:44:07;1.85;;;1.25;;
6735;SDS011;3405;50.576;12.364;2023-05-16T23:46:33;2.15;;;1.20;;
6735;SDS011;3405;50.576;12.364;2023-05-16T23:48:59;1.35;;;1.08;;
6735;SDS011;3405;50.576;12.364;2023-05-16T23:51:25;1.90;;;1.30;;
6735;SDS011;3405;50.576;12.364;2023-05-16T23:53:51;2.08;;;1.17;;
6735;SDS011;3405;50.576;12.364;2023-05-16T23:56:17;1.80;;;1.25;;
6735;SDS011;3405;50.576;12.364;2023-05-16T23:58:43;1.95;;;1.08;;
